EDT,Max TemperatureF,Mean TemperatureF,Min TemperatureF,Max Dew PointF,MeanDew PointF,Min DewpointF,Max Humidity, Mean Humidity, Min Humidity, Max Sea Level PressureIn, Mean Sea Level PressureIn, Min Sea Level PressureIn, Max VisibilityMiles, Mean VisibilityMiles, Min VisibilityMiles, Max Wind SpeedMPH, Mean Wind SpeedMPH, Max Gust SpeedMPH,PrecipitationIn, CloudCover, Events, WindDirDegrees
2013-7-1,78,75,71,73,71,68,93,88,82,30.03,29.95,29.86,10,9,2,15,7,21,0.20,8,Rain,181
2013-7-2,85,79,72,73,72,70,93,79,65,30.17,30.09,30.01,10,9,2,18,7,25,0.11,6,Rain,186
2013-7-3,85,78,71,75,72,69,94,80,65,30.25,30.20,30.15,10,9,1,12,5,13,0.28,5,Rain-Thunderstorm,213
2013-7-4,88,81,74,74,72,69,94,75,55,30.26,30.22,30.15,10,8,4,17,7,24,0.00,5,,215
2013-7-5,91,82,72,73,71,68,94,72,50,30.22,30.16,30.09,10,10,8,17,6,21,0.00,2,,224
2013-7-6,93,84,74,74,71,69,94,70,46,30.14,30.09,30.02,10,10,9,12,5,18,0.00,0,,247
2013-7-7,93,83,72,73,71,69,87,67,46,30.06,30.00,29.93,10,10,10,21,6,31,T,1,Rain,241
2013-7-8,87,79,70,70,67,63,90,70,50,30.05,30.02,29.96,10,10,10,18,5,24,0.00,1,,258
2013-7-9,87,79,70,72,69,66,90,73,55,30.06,30.03,29.98,10,8,5,13,3,18,0.01,2,Rain,242
2013-7-10,87,80,73,74,72,69,94,75,55,30.00,29.91,29.80,10,7,3,16,7,23,0.00,5,,225
2013-7-11,85,79,73,73,69,59,88,72,55,29.90,29.85,29.80,10,10,9,10,5,17,T,3,Rain,283
2013-7-12,77,73,69,69,66,61,97,81,64,30.04,30.00,29.90,10,7,1,18,10,25,1.27,7,Rain,60
2013-7-13,87,78,69,76,72,66,100,83,65,30.29,30.19,30.05,10,6,0,18,5,22,1.06,7,Fog-Rain,91
2013-7-14,90,82,73,74,72,69,100,76,52,30.36,30.30,30.24,10,5,0,9,4,15,0.00,5,Fog,262
2013-7-15,93,83,73,75,72,68,87,68,49,30.25,30.19,30.12,10,10,10,10,4,14,0.00,1,,293
2013-7-16,92,83,74,74,69,66,85,65,44,30.19,30.16,30.12,10,10,9,13,6,17,0.00,0,,349
2013-7-17,94,84,74,73,70,66,87,66,44,30.18,30.12,30.06,10,9,7,10,3,14,0.00,0,,321
2013-7-18,96,86,76,75,73,70,82,64,46,30.07,30.01,29.96,10,9,7,9,4,17,0.00,0,,284
2013-7-19,95,87,79,78,76,73,91,72,52,29.98,29.89,29.80,8,6,3,13,6,22,0.00,1,,239
2013-7-20,92,85,77,74,70,67,79,66,52,29.83,29.79,29.74,10,9,7,16,6,22,0.00,1,,252
2013-7-21,88,81,73,72,70,67,93,75,57,29.94,29.89,29.83,10,9,5,13,4,25,0.04,3,Rain,112
2013-7-22,86,79,72,75,72,69,93,81,69,29.94,29.86,29.77,10,5,0,17,5,18,1.04,6,Fog-Rain,103
2013-7-23,85,78,71,73,71,68,94,78,61,29.78,29.67,29.57,10,8,1,14,5,26,0.90,6,Rain-Thunderstorm,223
2013-7-24,79,71,63,68,63,53,84,71,57,29.91,29.75,29.62,10,10,8,13,7,24,0.00,2,,332
2013-7-25,70,66,61,58,55,51,78,68,58,30.04,29.99,29.91,10,10,8,14,8,18,T,6,,26
2013-7-26,82,72,62,61,58,56,84,63,42,30.04,30.01,29.99,10,10,10,13,5,18,0.00,3,,320
2013-7-27,83,73,62,68,62,59,93,70,47,30.04,30.00,29.92,10,10,6,18,5,23,0.00,0,,184
2013-7-28,82,75,68,72,68,64,90,80,69,29.98,29.93,29.87,10,8,0,17,6,23,0.50,6,Fog-Rain-Thunderstorm,176
2013-7-29,82,73,64,67,62,51,93,65,36,30.11,30.01,29.94,10,8,1,14,5,21,0.03,2,Rain-Thunderstorm,302
2013-7-30,80,70,60,58,57,55,84,65,45,30.17,30.13,30.10,10,10,10,13,6,20,0.00,1,,319
2013-7-31,81,71,60,64,59,54,97,68,39,30.15,30.09,30.02,10,10,9,12,4,20,0.00,1,,202